Time;durP1;ratioP1;P1;durP2;ratioP2;P2;SDS_P1;SDS_P2;PMS_P1;PMS_P2;Temp;Humidity;BMP_temperature;BMP_pressure;BME280_temperature;BME280_humidity;BME280_pressure;Samples;Min_cycle;Max_cycle;Signal;HPM_P1;HPM_P2
2021/09/21 00:00:41;;;;;;;6.97;5.95;;;15.70;1.00;;;;;;5053137;28;20385;-80
2021/09/21 00:03:07;;;;;;;6.10;5.50;;;15.80;1.00;;;;;;5053383;28;20511;-80
2021/09/21 00:05:33;;;;;;;6.90;6.25;;;15.70;1.00;;;;;;5037257;28;20112;-80
2021/09/21 00:07:59;;;;;;;6.18;5.57;;;15.80;1.00;;;;;;5055614;28;20021;-80
2021/09/21 00:10:24;;;;;;;7.38;5.68;;;15.80;1.00;;;;;;5053027;28;20033;-79
2021/09/21 00:12:51;;;;;;;7.00;6.30;;;15.80;1.00;;;;;;5053205;28;20021;-79
2021/09/21 00:15:17;;;;;;;6.38;5.78;;;15.70;1.00;;;;;;5052376;28;20057;-80
2021/09/21 00:17:45;;;;;;;7.65;5.75;;;15.70;1.00;;;;;;5052915;28;20132;-80
2021/09/21 00:20:11;;;;;;;8.30;5.70;;;15.70;1.00;;;;;;5055512;28;20044;-80
2021/09/21 00:22:38;;;;;;;6.75;6.00;;;15.70;1.00;;;;;;5054258;28;20078;-80
2021/09/21 00:25:03;;;;;;;6.65;5.60;;;15.80;1.00;;;;;;5052692;28;20076;-80
2021/09/21 00:27:29;;;;;;;6.15;5.55;;;15.80;1.00;;;;;;5053073;28;20056;-80
2021/09/21 00:29:55;;;;;;;6.32;5.45;;;15.80;1.00;;;;;;5053631;28;20032;-80
2021/09/21 00:32:25;;;;;;;6.72;6.13;;;15.90;1.00;;;;;;5053166;28;20100;-79
2021/09/21 00:34:51;;;;;;;7.70;6.07;;;15.90;1.00;;;;;;5053224;28;20117;-79
2021/09/21 00:37:17;;;;;;;7.40;6.50;;;15.90;1.00;;;;;;5052576;28;20032;-80
2021/09/21 00:39:44;;;;;;;6.10;5.50;;;15.90;1.00;;;;;;5052568;28;20028;-80
2021/09/21 00:42:11;;;;;;;11.45;5.80;;;15.90;1.00;;;;;;5052645;28;20032;-79
2021/09/21 00:44:37;;;;;;;7.35;6.32;;;15.80;1.00;;;;;;5052113;28;20523;-79
2021/09/21 00:47:05;;;;;;;7.82;5.90;;;15.80;1.00;;;;;;5055026;28;20259;-80
2021/09/21 00:49:32;;;;;;;6.95;5.75;;;15.90;1.00;;;;;;5051498;28;20025;-80
2021/09/21 00:51:59;;;;;;;6.53;5.88;;;15.90;1.00;;;;;;5052118;28;20036;-80
2021/09/21 00:54:24;;;;;;;6.80;6.18;;;15.90;1.00;;;;;;5051981;28;20466;-80
2021/09/21 00:56:51;;;;;;;6.82;6.15;;;15.90;1.00;;;;;;5052239;28;20112;-80
2021/09/21 00:59:17;;;;;;;7.13;5.95;;;15.80;1.00;;;;;;5053405;28;20025;-80
2021/09/21 01:01:42;;;;;;;7.40;6.05;;;15.80;1.00;;;;;;5054075;28;20028;-79
2021/09/21 01:04:08;;;;;;;6.60;6.00;;;15.70;1.00;;;;;;5052007;28;20041;-80
2021/09/21 01:06:34;;;;;;;8.85;5.45;;;15.70;1.00;;;;;;5050770;28;20420;-80
2021/09/21 01:09:00;;;;;;;6.10;5.30;;;15.70;1.00;;;;;;5051972;28;20021;-79
2021/09/21 01:11:26;;;;;;;6.13;5.50;;;15.70;1.00;;;;;;5052297;28;22360;-79
2021/09/21 01:13:51;;;;;;;6.88;5.25;;;15.80;1.00;;;;;;5052066;28;20044;-79
2021/09/21 01:16:19;;;;;;;5.95;5.18;;;15.60;1.00;;;;;;5052872;28;20037;-80
2021/09/21 01:18:45;;;;;;;5.60;5.07;;;15.70;1.00;;;;;;5051768;28;20100;-80
2021/09/21 01:21:12;;;;;;;5.80;5.25;;;15.80;1.00;;;;;;5052532;28;20067;-80
2021/09/21 01:24:04;;;;;;;5.40;4.65;;;15.80;1.00;;;;;;5051672;28;20022;-80
2021/09/21 01:26:30;;;;;;;6.90;5.38;;;15.80;1.00;;;;;;5031762;28;20160;-80
2021/09/21 01:28:55;;;;;;;5.40;4.88;;;15.80;1.00;;;;;;5053690;28;20111;-80
2021/09/21 01:31:21;;;;;;;5.65;5.07;;;15.80;1.00;;;;;;5033702;28;20139;-79
2021/09/21 01:33:48;;;;;;;6.50;5.90;;;15.80;1.00;;;;;;5052728;28;20071;-80
2021/09/21 01:36:16;;;;;;;7.00;5.38;;;15.80;1.00;;;;;;5051481;28;20094;-80
2021/09/21 01:38:41;;;;;;;6.85;4.68;;;15.80;1.00;;;;;;5051520;28;20025;-80
2021/09/21 01:41:07;;;;;;;5.50;5.00;;;15.80;1.00;;;;;;5052995;28;20037;-79
2021/09/21 01:43:33;;;;;;;5.72;4.93;;;15.90;1.00;;;;;;5051251;28;20025;-79
2021/09/21 01:45:58;;;;;;;4.88;4.40;;;15.90;1.00;;;;;;5051402;28;20033;-80
2021/09/21 01:48:24;;;;;;;5.65;4.63;;;15.90;1.00;;;;;;5051761;28;20112;-80
2021/09/21 01:50:55;;;;;;;5.50;4.85;;;15.90;1.00;;;;;;5049701;28;20040;-79
2021/09/21 01:58:52;;;;;;;6.05;4.63;;;15.80;1.00;;;;;;5053927;28;20033;-80
2021/09/21 02:01:21;;;;;;;6.47;4.75;;;15.80;1.00;;;;;;5051162;28;20408;-80
2021/09/21 02:03:48;;;;;;;4.70;4.00;;;15.80;1.00;;;;;;5051220;28;20376;-79
2021/09/21 02:06:14;;;;;;;5.68;4.25;;;15.80;1.00;;;;;;5050807;28;20033;-80
2021/09/21 02:08:40;;;;;;;4.72;3.90;;;15.80;1.00;;;;;;5050950;28;20036;-80
2021/09/21 02:11:06;;;;;;;6.82;4.75;;;15.80;1.00;;;;;;5053207;28;20017;-80
2021/09/21 02:13:32;;;;;;;7.43;4.30;;;15.90;1.00;;;;;;5050894;28;20032;-80
2021/09/21 02:15:59;;;;;;;4.88;3.78;;;15.90;1.00;;;;;;5050958;28;20468;-80
2021/09/21 02:18:24;;;;;;;11.15;4.00;;;16.00;1.00;;;;;;5050499;28;20028;-79
2021/09/21 02:20:50;;;;;;;4.57;4.18;;;16.00;1.00;;;;;;5051619;28;20032;-80
2021/09/21 02:23:16;;;;;;;6.18;3.92;;;16.00;1.00;;;;;;5051433;28;20055;-80
2021/09/21 02:25:42;;;;;;;4.43;4.03;;;16.00;1.00;;;;;;5051678;28;20029;-79
2021/09/21 02:28:08;;;;;;;5.47;3.83;;;15.90;1.00;;;;;;5050327;28;20481;-80
2021/09/21 02:30:35;;;;;;;4.40;3.83;;;15.90;1.00;;;;;;5049154;28;20029;-80
2021/09/21 02:33:01;;;;;;;4.45;3.50;;;15.80;1.00;;;;;;5050703;28;20028;-80
2021/09/21 02:35:26;;;;;;;3.88;3.40;;;15.70;1.00;;;;;;5050758;28;20041;-80
2021/09/21 02:37:52;;;;;;;3.97;3.38;;;15.70;1.00;;;;;;5052199;28;20070;-80
2021/09/21 02:40:18;;;;;;;4.95;3.90;;;15.70;1.00;;;;;;5050057;28;20430;-80
2021/09/21 02:42:44;;;;;;;5.43;3.53;;;15.70;1.00;;;;;;5050815;28;20021;-80
2021/09/21 02:45:10;;;;;;;6.03;4.22;;;15.70;1.00;;;;;;5050179;28;20047;-80
2021/09/21 02:47:36;;;;;;;6.65;3.70;;;15.70;1.00;;;;;;5050744;28;20512;-80
2021/09/21 02:50:04;;;;;;;4.60;3.92;;;15.70;1.00;;;;;;5048149;28;20025;-80
2021/09/21 02:52:30;;;;;;;4.57;3.97;;;15.70;1.00;;;;;;5050091;28;20029;-80
2021/09/21 02:54:55;;;;;;;4.78;4.03;;;15.70;1.00;;;;;;5050096;28;20051;-79
2021/09/21 02:57:21;;;;;;;4.28;3.70;;;15.70;1.00;;;;;;5050250;28;20397;-80
2021/09/21 02:59:46;;;;;;;5.40;4.05;;;15.70;1.00;;;;;;5049998;28;20024;-79
2021/09/21 03:02:12;;;;;;;5.18;3.47;;;15.60;1.00;;;;;;5051106;28;20022;-79
2021/09/21 03:04:42;;;;;;;4.60;3.38;;;15.70;1.00;;;;;;5050630;28;20021;-79
2021/09/21 03:07:14;;;;;;;5.28;3.80;;;15.70;1.00;;;;;;5049711;28;20036;-79
2021/09/21 03:17:29;;;;;;;4.63;3.47;;;15.70;1.00;;;;;;5050055;28;20035;-79
2021/09/21 03:19:55;;;;;;;4.95;3.40;;;15.70;1.00;;;;;;5051518;28;20032;-79
2021/09/21 03:22:22;;;;;;;5.82;3.95;;;15.80;1.00;;;;;;5049594;28;20078;-79
2021/09/21 03:24:48;;;;;;;4.55;3.88;;;15.80;1.00;;;;;;5048978;28;20033;-80
2021/09/21 03:27:14;;;;;;;4.15;3.47;;;15.80;1.00;;;;;;5050239;28;20443;-79
2021/09/21 03:29:40;;;;;;;5.07;4.18;;;15.80;1.00;;;;;;5048988;28;20029;-80
2021/09/21 03:32:06;;;;;;;6.00;4.40;;;15.70;1.00;;;;;;5051392;28;20416;-79
2021/09/21 03:34:32;;;;;;;4.82;4.10;;;15.70;1.00;;;;;;5049628;28;20063;-80
2021/09/21 03:36:58;;;;;;;7.80;4.25;;;15.70;1.00;;;;;;5049595;28;20108;-79
2021/09/21 03:39:24;;;;;;;5.13;4.15;;;15.60;1.00;;;;;;5048947;28;20124;-80
2021/09/21 03:41:50;;;;;;;4.45;4.05;;;15.60;1.00;;;;;;5049775;28;20029;-80
2021/09/21 03:44:16;;;;;;;4.95;4.35;;;15.60;1.00;;;;;;5050388;28;20572;-79
2021/09/21 03:46:41;;;;;;;4.68;4.28;;;15.50;1.00;;;;;;5050878;28;20079;-79
2021/09/21 03:49:07;;;;;;;4.22;3.83;;;15.50;1.00;;;;;;5047537;28;20037;-79
2021/09/21 03:51:33;;;;;;;4.60;4.07;;;15.50;1.00;;;;;;5049428;28;20021;-80
2021/09/21 03:53:59;;;;;;;7.88;4.22;;;15.60;1.00;;;;;;5049314;28;20087;-80
2021/09/21 03:56:24;;;;;;;4.25;3.88;;;15.70;1.00;;;;;;5049660;28;20024;-79
2021/09/21 03:58:50;;;;;;;5.55;3.70;;;15.70;1.00;;;;;;5051319;28;20030;-79
2021/09/21 04:01:15;;;;;;;4.30;3.90;;;15.70;1.00;;;;;;5049095;28;20033;-79
2021/09/21 04:03:41;;;;;;;4.15;3.65;;;15.70;1.00;;;;;;5048945;28;20033;-79
2021/09/21 04:06:07;;;;;;;6.30;3.75;;;15.70;1.00;;;;;;5048682;28;20480;-80
2021/09/21 04:08:32;;;;;;;4.40;4.00;;;15.70;1.00;;;;;;5049593;28;20038;-80
2021/09/21 04:10:58;;;;;;;4.60;4.10;;;15.70;1.00;;;;;;5051939;28;20036;-79
2021/09/21 04:13:24;;;;;;;4.40;3.50;;;15.80;1.00;;;;;;5048767;28;20030;-80
2021/09/21 04:15:49;;;;;;;4.25;3.85;;;15.70;1.00;;;;;;5048852;28;20639;-79
2021/09/21 04:18:15;;;;;;;6.40;4.05;;;15.70;1.00;;;;;;5049227;28;20029;-80
2021/09/21 04:20:40;;;;;;;3.97;3.58;;;15.70;1.00;;;;;;5049142;28;20040;-80
2021/09/21 04:23:06;;;;;;;4.35;3.40;;;15.70;1.00;;;;;;5050530;28;20021;-79
2021/09/21 04:25:32;;;;;;;4.93;3.65;;;15.60;1.00;;;;;;5049075;28;20017;-80
2021/09/21 04:27:58;;;;;;;3.80;3.50;;;15.60;1.00;;;;;;5048202;28;20036;-80
2021/09/21 04:30:24;;;;;;;3.95;3.40;;;15.60;1.00;;;;;;5049102;28;20079;-80
2021/09/21 04:32:50;;;;;;;5.88;3.80;;;15.60;1.00;;;;;;5049222;28;20554;-80
2021/09/21 04:35:16;;;;;;;4.03;3.67;;;15.60;1.00;;;;;;5050203;28;20068;-80
2021/09/21 04:37:42;;;;;;;4.35;3.92;;;15.70;1.00;;;;;;5050765;28;20017;-79
2021/09/21 04:40:09;;;;;;;3.80;3.50;;;15.60;1.00;;;;;;5049398;28;20033;-79
2021/09/21 04:42:35;;;;;;;3.63;3.25;;;15.60;1.00;;;;;;5052831;28;20103;-80
2021/09/21 04:45:01;;;;;;;4.70;3.00;;;15.70;1.00;;;;;;5052897;28;20056;-79
2021/09/21 04:47:26;;;;;;;8.60;4.22;;;15.70;1.00;;;;;;5052346;28;20065;-79
2021/09/21 04:49:52;;;;;;;4.68;3.60;;;15.70;1.00;;;;;;5054541;28;20044;-79
2021/09/21 04:52:20;;;;;;;4.53;3.70;;;15.60;1.00;;;;;;5051655;28;20485;-79
2021/09/21 04:54:46;;;;;;;5.22;3.70;;;15.60;1.00;;;;;;5051467;28;20075;-80
2021/09/21 04:57:12;;;;;;;4.63;3.60;;;15.60;1.00;;;;;;5051603;28;20056;-79
2021/09/21 04:59:37;;;;;;;5.93;3.55;;;15.60;1.00;;;;;;5051751;28;20080;-79
2021/09/21 05:02:03;;;;;;;4.00;3.53;;;15.60;1.00;;;;;;5054408;28;20056;-79
2021/09/21 05:04:28;;;;;;;5.05;3.88;;;15.50;1.00;;;;;;5051950;28;20035;-79
2021/09/21 05:06:54;;;;;;;5.28;3.72;;;15.60;1.00;;;;;;5050227;28;20511;-80
2021/09/21 05:09:20;;;;;;;6.85;3.45;;;15.60;1.00;;;;;;5052435;28;20032;-80
2021/09/21 05:11:46;;;;;;;3.83;3.53;;;15.60;1.00;;;;;;5052239;28;20029;-79
2021/09/21 05:14:15;;;;;;;3.97;3.63;;;15.60;1.00;;;;;;5053512;28;20052;-79
2021/09/21 05:16:41;;;;;;;3.90;3.60;;;15.60;1.00;;;;;;5053186;28;20028;-79
2021/09/21 05:19:08;;;;;;;7.43;3.63;;;15.70;1.00;;;;;;5050947;28;20039;-79
2021/09/21 05:21:34;;;;;;;6.43;4.25;;;15.70;1.00;;;;;;5051469;28;20140;-80
2021/09/21 05:24:00;;;;;;;5.05;4.10;;;15.60;1.00;;;;;;5051661;28;20021;-80
2021/09/21 05:26:26;;;;;;;7.10;4.38;;;15.70;1.00;;;;;;5052155;28;20048;-80
2021/09/21 05:28:51;;;;;;;4.28;3.88;;;15.60;1.00;;;;;;5053815;28;20021;-80
2021/09/21 05:31:17;;;;;;;5.95;4.40;;;15.60;1.00;;;;;;5051821;28;20090;-80
2021/09/21 05:33:43;;;;;;;6.03;4.70;;;15.60;1.00;;;;;;5050800;28;20024;-80
2021/09/21 05:36:08;;;;;;;7.43;5.30;;;15.70;1.00;;;;;;5051640;28;20124;-80
2021/09/21 05:38:34;;;;;;;5.47;4.75;;;15.70;1.00;;;;;;5051725;28;20028;-79
2021/09/21 05:41:00;;;;;;;6.93;5.45;;;15.60;1.00;;;;;;5053496;28;20041;-79
2021/09/21 05:43:25;;;;;;;8.18;5.18;;;15.50;1.00;;;;;;5048374;28;20028;-79
2021/09/21 05:45:51;;;;;;;9.80;5.90;;;15.60;1.00;;;;;;5039445;28;20048;-80
2021/09/21 05:48:16;;;;;;;6.55;5.40;;;15.60;1.00;;;;;;5034622;28;20486;-80
2021/09/21 05:50:42;;;;;;;6.50;5.00;;;15.60;1.00;;;;;;5050238;28;20489;-79
2021/09/21 05:53:08;;;;;;;5.47;4.38;;;15.60;1.00;;;;;;5051633;28;20457;-79
2021/09/21 05:55:33;;;;;;;4.75;3.80;;;15.60;1.00;;;;;;5050060;28;20051;-80
2021/09/21 05:57:59;;;;;;;4.60;3.83;;;15.60;1.00;;;;;;5050227;28;20040;-79
2021/09/21 06:00:25;;;;;;;4.70;3.63;;;15.60;1.00;;;;;;5050336;28;20033;-80
2021/09/21 06:02:51;;;;;;;6.28;4.13;;;15.70;1.00;;;;;;5050580;28;20407;-81
2021/09/21 06:05:17;;;;;;;5.05;4.15;;;15.70;1.00;;;;;;5050320;28;20033;-81
2021/09/21 06:07:48;;;;;;;5.28;3.83;;;15.80;1.00;;;;;;5048646;28;20040;-81
2021/09/21 06:10:16;;;;;;;4.13;3.67;;;15.90;1.00;;;;;;5048049;28;20044;-81
2021/09/21 06:12:42;;;;;;;5.97;4.15;;;15.90;1.00;;;;;;5050983;28;20437;-81
2021/09/21 06:15:10;;;;;;;4.68;4.28;;;16.00;1.00;;;;;;5048271;28;20084;-80
2021/09/21 06:17:36;;;;;;;4.47;3.70;;;15.90;1.00;;;;;;5039825;28;20055;-79
2021/09/21 06:20:03;;;;;;;5.50;3.83;;;15.90;1.00;;;;;;5051788;28;20462;-79
2021/09/21 06:22:28;;;;;;;4.03;3.65;;;15.80;1.00;;;;;;5048446;28;20021;-79
2021/09/21 06:24:54;;;;;;;3.78;3.40;;;15.80;1.00;;;;;;5048499;28;20071;-80
2021/09/21 06:27:20;;;;;;;5.18;3.58;;;15.70;1.00;;;;;;5049952;28;20071;-79
2021/09/21 06:29:46;;;;;;;4.28;3.58;;;15.80;1.00;;;;;;5049705;28;20033;-79
2021/09/21 06:32:11;;;;;;;7.00;4.07;;;15.80;1.00;;;;;;5044902;28;20389;-79
2021/09/21 06:34:37;;;;;;;4.63;3.67;;;15.80;1.00;;;;;;5050763;28;20033;-80
2021/09/21 06:37:03;;;;;;;3.50;3.20;;;15.80;1.00;;;;;;5048479;28;20102;-79
2021/09/21 06:39:28;;;;;;;5.60;3.25;;;15.90;1.00;;;;;;5049247;28;20029;-80
2021/09/21 06:41:54;;;;;;;4.30;3.63;;;16.00;1.00;;;;;;5050252;28;20017;-79
2021/09/21 06:44:20;;;;;;;4.22;3.92;;;15.90;1.00;;;;;;5050397;28;20489;-80
2021/09/21 06:46:45;;;;;;;6.18;3.88;;;16.00;1.00;;;;;;5049864;28;20029;-80
2021/09/21 06:49:11;;;;;;;4.22;3.83;;;16.00;1.00;;;;;;5049123;28;20564;-80
2021/09/21 06:51:37;;;;;;;4.80;4.25;;;16.10;1.00;;;;;;5049598;28;20510;-80
2021/09/21 06:54:02;;;;;;;7.30;3.95;;;16.10;1.00;;;;;;5049677;28;20488;-81
2021/09/21 06:56:29;;;;;;;6.63;4.47;;;16.30;1.00;;;;;;5049127;28;20034;-80
2021/09/21 06:58:56;;;;;;;8.02;5.20;;;16.50;1.00;;;;;;5050633;28;20104;-81
2021/09/21 07:01:23;;;;;;;7.57;4.43;;;16.40;1.00;;;;;;5048615;28;20017;-80
2021/09/21 07:03:49;;;;;;;4.78;4.30;;;16.40;1.00;;;;;;5046936;28;20032;-81
2021/09/21 07:06:14;;;;;;;5.40;4.43;;;16.30;1.00;;;;;;5049228;28;20033;-80
2021/09/21 07:08:40;;;;;;;5.28;4.30;;;16.40;1.00;;;;;;5049797;28;20056;-81
2021/09/21 07:11:06;;;;;;;5.68;4.85;;;16.50;1.00;;;;;;5051075;28;20060;-81
2021/09/21 07:13:31;;;;;;;6.75;5.55;;;16.70;1.00;;;;;;5048896;28;20116;-81
2021/09/21 07:15:57;;;;;;;5.97;5.32;;;16.70;1.00;;;;;;5048127;28;20487;-81
2021/09/21 07:18:22;;;;;;;6.90;5.20;;;16.80;1.00;;;;;;5047658;28;20090;-81
2021/09/21 07:20:48;;;;;;;5.68;5.13;;;17.00;1.00;;;;;;5049359;28;20029;-79
2021/09/21 07:23:13;;;;;;;6.95;5.25;;;16.90;1.00;;;;;;5050337;28;20473;-81
2021/09/21 07:25:39;;;;;;;7.88;5.07;;;16.90;1.00;;;;;;5047295;28;20021;-81
2021/09/21 07:28:05;;;;;;;6.88;5.63;;;17.00;1.00;;;;;;5048577;28;20120;-81
2021/09/21 07:30:32;;;;;;;7.70;5.72;;;16.90;1.00;;;;;;5048040;28;20924;-81
2021/09/21 07:32:58;;;;;;;6.32;5.05;;;16.90;1.00;;;;;;5048885;28;20036;-81
2021/09/21 07:35:23;;;;;;;5.82;4.20;;;16.90;1.00;;;;;;5048620;28;20045;-81
2021/09/21 07:37:49;;;;;;;5.88;4.97;;;17.10;1.00;;;;;;5050394;28;20028;-81
2021/09/21 07:40:16;;;;;;;5.30;4.40;;;17.20;1.00;;;;;;5048430;28;20055;-81
2021/09/21 07:42:42;;;;;;;6.18;4.55;;;17.40;1.00;;;;;;5047017;28;20042;-81
2021/09/21 07:45:08;;;;;;;5.13;4.72;;;17.50;1.00;;;;;;5048631;28;20366;-81
2021/09/21 07:47:34;;;;;;;5.15;3.83;;;17.70;1.00;;;;;;5048367;28;20034;-81
2021/09/21 07:50:00;;;;;;;4.95;4.20;;;17.80;1.00;;;;;;5050360;28;20108;-81
2021/09/21 07:52:26;;;;;;;5.32;4.47;;;17.80;1.00;;;;;;5048382;28;20029;-81
2021/09/21 07:54:52;;;;;;;4.55;4.00;;;17.60;1.00;;;;;;5047614;28;20037;-81
2021/09/21 07:57:17;;;;;;;14.43;4.75;;;17.60;1.00;;;;;;5048368;28;20056;-81
2021/09/21 07:59:44;;;;;;;5.47;4.00;;;17.60;1.00;;;;;;5048086;28;20028;-81
2021/09/21 08:02:10;;;;;;;7.68;4.18;;;17.90;1.00;;;;;;5049931;28;20044;-81
2021/09/21 08:04:37;;;;;;;4.57;3.60;;;18.10;1.00;;;;;;5048900;28;20059;-81
2021/09/21 08:07:04;;;;;;;4.35;3.95;;;18.40;1.00;;;;;;5043567;28;20029;-81
2021/09/21 08:09:30;;;;;;;4.35;3.95;;;18.30;1.00;;;;;;5044486;28;20443;-80
2021/09/21 08:11:55;;;;;;;7.82;3.65;;;18.20;1.00;;;;;;5048121;28;20029;-81
2021/09/21 08:14:21;;;;;;;10.70;4.22;;;18.10;1.00;;;;;;5047908;28;20052;-81
2021/09/21 08:16:48;;;;;;;6.72;4.63;;;17.90;1.00;;;;;;5051893;28;20567;-81
2021/09/21 08:19:13;;;;;;;6.38;4.20;;;17.70;1.00;;;;;;5051952;28;20033;-81
2021/09/21 08:21:39;;;;;;;5.70;4.25;;;17.40;1.00;;;;;;5050587;28;20059;-80
2021/09/21 08:24:05;;;;;;;10.90;4.25;;;17.40;1.00;;;;;;5052926;28;20100;-81
2021/09/21 08:26:31;;;;;;;4.10;3.80;;;17.60;1.00;;;;;;5052458;28;20029;-81
2021/09/21 08:28:57;;;;;;;5.13;3.60;;;17.70;1.00;;;;;;5054221;28;20036;-81
2021/09/21 08:31:23;;;;;;;3.67;3.35;;;17.60;1.00;;;;;;5051671;28;20115;-81
2021/09/21 08:33:49;;;;;;;4.45;3.55;;;17.60;1.00;;;;;;5052821;28;20016;-81
2021/09/21 08:36:14;;;;;;;3.80;3.50;;;17.60;1.00;;;;;;5043301;28;20037;-80
2021/09/21 08:38:40;;;;;;;4.00;3.20;;;17.70;1.00;;;;;;5052517;28;20048;-80
2021/09/21 08:41:06;;;;;;;3.85;3.17;;;17.80;1.00;;;;;;5053743;28;20033;-80
2021/09/21 08:43:32;;;;;;;9.73;3.70;;;17.90;1.00;;;;;;5050994;28;20036;-80
2021/09/21 08:45:58;;;;;;;3.83;3.40;;;17.80;1.00;;;;;;5051332;28;20670;-81
2021/09/21 08:48:24;;;;;;;3.53;3.22;;;17.60;1.00;;;;;;5051566;28;20033;-81
2021/09/21 08:50:50;;;;;;;6.30;3.15;;;17.60;1.00;;;;;;5053260;28;20066;-80
2021/09/21 08:53:16;;;;;;;3.50;3.20;;;17.60;1.00;;;;;;5049167;28;20147;-81
2021/09/21 08:55:42;;;;;;;3.30;3.00;;;17.60;1.00;;;;;;5050752;28;20047;-81
2021/09/21 08:58:08;;;;;;;3.85;2.97;;;17.80;1.00;;;;;;5034039;28;20544;-81
2021/09/21 09:00:35;;;;;;;11.88;3.50;;;17.90;1.00;;;;;;5051075;28;20030;-81
2021/09/21 09:03:10;;;;;;;3.00;2.70;;;18.10;1.00;;;;;;5052448;28;20041;-81
2021/09/21 09:05:48;;;;;;;5.22;2.70;;;18.00;1.00;;;;;;5036559;28;20576;-81
2021/09/21 09:08:14;;;;;;;7.85;2.67;;;18.10;1.00;;;;;;5050702;28;20381;-81
2021/09/21 09:10:40;;;;;;;5.03;2.80;;;18.30;1.00;;;;;;5047332;28;20025;-81
2021/09/21 09:13:19;;;;;;;2.72;2.38;;;18.00;1.00;;;;;;5047025;28;20036;-80
2021/09/21 09:15:53;;;;;;;3.13;2.63;;;18.00;1.00;;;;;;5045528;28;20098;-80
2021/09/21 09:18:25;;;;;;;4.30;2.70;;;18.20;1.00;;;;;;5043256;28;20036;-79
2021/09/21 09:20:51;;;;;;;2.60;2.40;;;18.60;1.00;;;;;;5051951;28;20025;-79
2021/09/21 09:23:17;;;;;;;4.32;2.60;;;18.90;1.00;;;;;;5053406;28;20104;-81
2021/09/21 09:25:44;;;;;;;2.83;2.10;;;19.20;1.00;;;;;;5053183;28;20154;-78
2021/09/21 09:28:24;;;;;;;3.78;2.45;;;19.40;1.00;;;;;;5050391;28;20033;-79
2021/09/21 09:30:51;;;;;;;5.22;2.92;;;20.00;1.00;;;;;;5051749;28;20021;-79
2021/09/21 09:33:17;;;;;;;2.92;2.60;;;20.60;1.00;;;;;;5051527;28;20033;-79
2021/09/21 09:35:45;;;;;;;3.00;2.72;;;21.30;1.00;;;;;;5051398;28;20124;-79
2021/09/21 09:38:16;;;;;;;4.18;2.70;;;22.50;1.00;;;;;;5052711;28;20028;-79
2021/09/21 09:40:46;;;;;;;4.32;2.30;;;22.60;1.00;;;;;;5052641;28;20059;-80
2021/09/21 09:43:17;;;;;;;2.85;2.50;;;25.70;1.00;;;;;;5051357;28;20033;-80
2021/09/21 09:45:45;;;;;;;8.38;3.10;;;24.40;1.00;;;;;;5051220;28;20033;-81
2021/09/21 09:48:17;;;;;;;3.72;2.78;;;23.40;1.00;;;;;;5051537;28;20063;-80
2021/09/21 09:50:44;;;;;;;3.90;2.63;;;23.40;1.00;;;;;;5036507;28;20148;-78
2021/09/21 09:53:13;;;;;;;2.33;2.13;;;28.00;1.00;;;;;;5053119;28;20025;-80
2021/09/21 09:55:40;;;;;;;2.60;2.40;;;26.70;1.00;;;;;;5032305;28;20428;-81
2021/09/21 09:58:07;;;;;;;4.68;2.60;;;30.60;1.00;;;;;;5050424;28;20448;-80
2021/09/21 10:00:34;;;;;;;3.20;2.28;;;27.30;1.00;;;;;;5047589;28;20038;-80
2021/09/21 10:03:01;;;;;;;2.58;2.30;;;25.90;1.00;;;;;;5051364;28;20025;-80
2021/09/21 10:05:32;;;;;;;2.65;2.10;;;26.80;1.00;;;;;;5051318;28;20041;-80
2021/09/21 10:07:58;;;;;;;4.43;2.10;;;25.90;1.00;;;;;;5053258;28;20032;-81
2021/09/21 10:10:26;;;;;;;5.53;2.40;;;27.70;1.00;;;;;;5050567;28;20029;-81
2021/09/21 10:12:52;;;;;;;3.05;2.17;;;25.00;1.00;;;;;;5050813;28;20025;-84
2021/09/21 10:15:18;;;;;;;2.53;2.30;;;23.40;1.00;;;;;;5050928;28;20045;-84
2021/09/21 10:17:53;;;;;;;4.30;2.53;;;22.30;1.00;;;;;;5049079;28;20029;-84
2021/09/21 10:20:39;;;;;;;2.72;2.53;;;21.70;1.00;;;;;;5051357;28;20029;-83
2021/09/21 10:23:08;;;;;;;3.55;2.50;;;21.70;1.00;;;;;;5049616;28;20228;-84
2021/09/21 10:25:40;;;;;;;2.20;2.10;;;21.70;1.00;;;;;;5050569;28;20036;-85
2021/09/21 10:28:14;;;;;;;3.25;2.28;;;24.60;1.00;;;;;;5050533;28;20489;-83
2021/09/21 10:30:55;;;;;;;2.63;2.33;;;27.60;1.00;;;;;;5050243;28;20056;-80
2021/09/21 10:33:28;;;;;;;3.33;2.40;;;29.70;1.00;;;;;;5050146;28;20029;-81
2021/09/21 10:35:54;;;;;;;3.42;2.28;;;27.70;1.00;;;;;;5050012;28;20029;-83
2021/09/21 10:38:21;;;;;;;2.22;2.03;;;27.60;1.00;;;;;;5051089;28;20481;-83
2021/09/21 10:40:49;;;;;;;3.78;2.17;;;25.80;1.00;;;;;;5049998;28;20068;-82
2021/09/21 10:43:29;;;;;;;2.13;1.95;;;32.20;1.00;;;;;;5050269;28;20392;-85
2021/09/21 10:46:14;;;;;;;3.28;2.50;;;34.20;1.00;;;;;;5050123;28;20071;-80
2021/09/21 10:48:44;;;;;;;3.30;2.00;;;31.40;1.00;;;;;;5050090;28;20013;-81
2021/09/21 10:51:11;;;;;;;2.40;2.20;;;31.00;1.00;;;;;;5050319;28;20064;-81
2021/09/21 10:53:37;;;;;;;2.40;2.20;;;30.50;1.00;;;;;;5031749;28;20048;-81
2021/09/21 10:56:14;;;;;;;3.10;2.47;;;31.70;1.00;;;;;;5048050;28;20032;-81
2021/09/21 10:58:51;;;;;;;2.30;2.10;;;37.60;1.00;;;;;;5050929;28;20056;-81
2021/09/21 11:01:16;;;;;;;2.40;2.10;;;39.80;99.90;;;;;;5050251;28;20423;-81
2021/09/21 11:03:42;;;;;;;3.28;2.58;;;35.60;99.90;;;;;;5049391;28;20055;-82
2021/09/21 11:06:08;;;;;;;2.38;2.17;;;36.60;1.00;;;;;;5049971;28;20120;-80
2021/09/21 11:08:35;;;;;;;2.60;2.35;;;37.20;99.90;;;;;;5049689;28;20084;-79
2021/09/21 11:11:04;;;;;;;3.88;2.80;;;35.00;1.00;;;;;;5051970;28;20028;-80
2021/09/21 11:13:35;;;;;;;2.58;2.38;;;32.90;1.00;;;;;;5049305;28;20112;-81
2021/09/21 11:16:04;;;;;;;3.28;2.40;;;32.40;1.00;;;;;;5049488;28;20040;-80
2021/09/21 11:18:29;;;;;;;2.88;2.30;;;35.70;1.00;;;;;;5049455;28;20025;-79
2021/09/21 11:21:02;;;;;;;4.63;2.28;;;37.40;99.90;;;;;;5049610;28;20029;-79
2021/09/21 11:23:30;;;;;;;2.67;1.88;;;38.40;99.90;;;;;;5031670;28;20476;-79
2021/09/21 11:26:02;;;;;;;2.75;2.20;;;36.80;99.90;;;;;;5051447;28;20057;-79
2021/09/21 11:28:32;;;;;;;2.90;2.55;;;38.30;99.90;;;;;;5050157;28;20033;-80
2021/09/21 11:31:00;;;;;;;3.40;2.50;;;34.30;1.00;;;;;;5049287;28;20504;-80
2021/09/21 11:33:34;;;;;;;2.83;2.13;;;31.40;1.00;;;;;;5049517;28;20028;-80
2021/09/21 11:36:04;;;;;;;3.05;2.38;;;32.10;1.00;;;;;;5047749;28;20036;-79
2021/09/21 11:38:32;;;;;;;3.03;2.17;;;34.70;1.00;;;;;;5049146;28;20037;-79
2021/09/21 11:40:58;;;;;;;4.30;2.47;;;34.10;1.00;;;;;;5051382;28;20025;-79
2021/09/21 11:43:24;;;;;;;2.70;2.45;;;31.10;1.00;;;;;;5049227;28;20043;-79
2021/09/21 11:45:51;;;;;;;2.05;1.95;;;30.90;1.00;;;;;;5049664;28;20064;-79
2021/09/21 11:48:18;;;;;;;2.85;2.15;;;30.00;1.00;;;;;;5049411;28;20560;-79
2021/09/21 11:50:45;;;;;;;2.58;2.20;;;30.00;1.00;;;;;;5048221;28;20032;-79
2021/09/21 11:53:13;;;;;;;3.85;2.50;;;32.30;1.00;;;;;;5050597;28;20025;-78
2021/09/21 11:55:45;;;;;;;2.60;2.40;;;31.50;1.00;;;;;;5049802;28;20124;-79
2021/09/21 11:58:14;;;;;;;3.83;2.88;;;29.50;1.00;;;;;;5049528;28;20025;-78
2021/09/21 12:00:43;;;;;;;3.85;2.90;;;26.70;1.00;;;;;;5049077;28;20083;-79
2021/09/21 12:03:12;;;;;;;2.63;2.42;;;26.40;1.00;;;;;;5049555;28;20170;-79
2021/09/21 12:05:41;;;;;;;3.83;2.80;;;25.20;1.00;;;;;;5033395;28;20038;-78
2021/09/21 12:08:27;;;;;;;3.55;2.50;;;24.50;1.00;;;;;;5051369;28;20040;-79
2021/09/21 12:11:06;;;;;;;2.85;2.33;;;24.20;1.00;;;;;;5050200;28;20045;-78
2021/09/21 12:13:32;;;;;;;4.40;2.65;;;24.30;1.00;;;;;;5047505;28;20143;-78
2021/09/21 12:16:00;;;;;;;3.10;2.90;;;23.60;1.00;;;;;;5047703;28;20116;-78
2021/09/21 12:18:28;;;;;;;3.38;2.90;;;23.50;1.00;;;;;;5049053;28;20083;-78
2021/09/21 12:20:59;;;;;;;4.57;3.05;;;23.40;1.00;;;;;;5049995;28;20028;-78
2021/09/21 12:23:27;;;;;;;3.20;2.90;;;23.40;1.00;;;;;;5048498;28;20036;-77
2021/09/21 12:25:54;;;;;;;3.35;2.55;;;25.20;1.00;;;;;;5051894;28;20036;-78
2021/09/21 12:28:46;;;;;;;4.60;2.40;;;25.80;1.00;;;;;;5049033;28;20029;-78
2021/09/21 12:31:27;;;;;;;2.45;2.25;;;26.00;1.00;;;;;;5049201;28;20036;-78
2021/09/21 12:33:54;;;;;;;3.30;2.28;;;30.70;1.00;;;;;;5048458;28;20079;-78
2021/09/21 12:36:26;;;;;;;2.92;2.30;;;34.90;1.00;;;;;;5049433;28;20036;-79
2021/09/21 12:38:59;;;;;;;2.42;2.22;;;34.20;1.00;;;;;;5049378;28;20025;-79
2021/09/21 12:41:25;;;;;;;4.20;2.47;;;30.20;1.00;;;;;;5049227;28;20396;-79
2021/09/21 12:43:55;;;;;;;3.50;3.00;;;33.30;1.00;;;;;;5050858;28;20025;-79
2021/09/21 12:46:21;;;;;;;4.88;2.78;;;33.90;1.00;;;;;;5048616;28;20044;-79
2021/09/21 12:48:47;;;;;;;2.53;2.30;;;35.40;1.00;;;;;;5048236;28;20021;-79
2021/09/21 12:51:13;;;;;;;2.75;2.55;;;36.20;99.90;;;;;;5048620;28;20029;-79
2021/09/21 12:53:39;;;;;;;3.13;2.40;;;36.40;99.90;;;;;;5047168;28;20400;-79
2021/09/21 12:56:10;;;;;;;3.20;2.50;;;34.10;99.90;;;;;;5050852;28;20591;-79
2021/09/21 12:58:38;;;;;;;3.03;2.70;;;35.20;1.00;;;;;;5047911;28;20028;-79
2021/09/21 13:01:14;;;;;;;3.15;2.83;;;33.60;1.00;;;;;;5048553;28;20558;-79
2021/09/21 13:03:40;;;;;;;3.22;2.92;;;32.10;1.00;;;;;;5051404;28;20017;-79
2021/09/21 13:06:07;;;;;;;3.38;2.80;;;33.60;1.00;;;;;;5052308;28;20029;-79
2021/09/21 13:08:34;;;;;;;3.38;3.00;;;33.00;1.00;;;;;;5052233;28;20384;-79